createdAt,value
2023-01-30T00:01:06.152Z,76.00
2023-01-30T00:03:34.514Z,75.50
2023-01-30T00:06:01.905Z,74.90
2023-01-30T00:08:30.125Z,73.90
2023-01-30T00:10:57.392Z,71.30
2023-01-30T00:13:25.938Z,72.80
2023-01-30T00:15:54.080Z,75.50
2023-01-30T00:18:22.716Z,77.70
2023-01-30T00:20:55.742Z,79.50
2023-01-30T00:23:25.252Z,79.40
2023-01-30T00:25:52.772Z,78.20
2023-01-30T00:28:20.646Z,77.50
2023-01-30T00:30:55.927Z,76.20
2023-01-30T00:33:25.773Z,74.70
2023-01-30T00:35:54.940Z,76.40
2023-01-30T00:38:24.199Z,79.00
2023-01-30T00:40:51.956Z,79.30
2023-01-30T00:43:40.285Z,79.70
2023-01-30T00:46:44.879Z,80.30
2023-01-30T00:49:12.737Z,79.50
2023-01-30T00:51:41.478Z,78.70
2023-01-30T00:54:08.920Z,76.90
2023-01-30T00:56:36.673Z,76.20
2023-01-30T00:59:04.753Z,76.20
2023-01-30T01:01:33.178Z,76.00
2023-01-30T01:04:01.029Z,74.10
2023-01-30T01:06:28.451Z,74.10
2023-01-30T01:08:56.150Z,74.90
2023-01-30T01:11:29.755Z,73.90
2023-01-30T01:14:00.091Z,76.10
2023-01-30T01:16:30.825Z,76.50
2023-01-30T01:19:00.304Z,76.90
2023-01-30T01:21:28.018Z,76.80
2023-01-30T01:23:58.839Z,76.00
2023-01-30T01:26:27.083Z,75.00
2023-01-30T01:28:59.237Z,74.30
2023-01-30T01:31:27.054Z,71.60
2023-01-30T01:33:57.443Z,74.30
2023-01-30T01:36:53.348Z,75.40
2023-01-30T01:39:16.956Z,76.20
2023-01-30T01:41:44.203Z,75.90
2023-01-30T01:44:14.128Z,75.20
2023-01-30T01:46:56.061Z,75.10
2023-01-30T01:49:28.313Z,74.50
2023-01-30T01:52:07.872Z,73.30
2023-01-30T01:54:49.739Z,72.30
2023-01-30T01:57:30.174Z,74.20
2023-01-30T02:00:06.832Z,74.10
2023-01-30T02:02:44.358Z,74.40
2023-01-30T02:05:14.228Z,75.90
2023-01-30T02:07:54.789Z,75.10
2023-01-30T02:10:49.118Z,76.00
2023-01-30T02:13:17.298Z,74.30
2023-01-30T02:15:47.987Z,77.70
2023-01-30T02:18:17.260Z,79.30
2023-01-30T02:20:51.437Z,79.10
2023-01-30T02:23:36.431Z,79.30
2023-01-30T02:26:26.409Z,79.20
2023-01-30T02:29:19.981Z,78.30
2023-01-30T02:32:07.030Z,77.10
2023-01-30T02:34:47.429Z,74.70
2023-01-30T02:37:21.126Z,74.50
2023-01-30T02:40:29.860Z,75.90
2023-01-30T02:43:16.901Z,77.20
2023-01-30T02:46:10.053Z,77.50
2023-01-30T02:48:49.425Z,77.00
2023-01-30T02:51:40.072Z,76.30
2023-01-30T02:54:11.010Z,76.30
2023-01-30T02:57:03.333Z,75.70
2023-01-30T02:59:39.137Z,76.40
2023-01-30T03:02:26.175Z,77.50
2023-01-30T03:05:26.804Z,76.00
2023-01-30T03:08:08.037Z,77.30
2023-01-30T03:11:06.447Z,76.40
2023-01-30T03:13:55.707Z,76.80
2023-01-30T03:16:32.587Z,75.30
2023-01-30T03:19:06.060Z,76.10
2023-01-30T03:21:33.954Z,77.50
2023-01-30T03:24:01.830Z,78.00
2023-01-30T03:26:36.820Z,77.70
2023-01-30T03:29:05.428Z,76.90
2023-01-30T03:31:33.328Z,76.00
2023-01-30T03:34:02.137Z,75.50
2023-01-30T03:36:31.470Z,75.60
2023-01-30T03:38:59.499Z,74.90
2023-01-30T03:41:26.865Z,76.40
2023-01-30T03:43:54.570Z,76.70
2023-01-30T03:46:22.231Z,77.10
2023-01-30T03:48:50.402Z,76.50
2023-01-30T03:51:18.082Z,75.30
2023-01-30T03:53:46.419Z,75.20
2023-01-30T03:56:13.992Z,75.90
2023-01-30T03:58:41.561Z,75.70
2023-01-30T04:01:21.496Z,75.80
2023-01-30T04:03:49.382Z,74.70
2023-01-30T04:06:17.580Z,76.90
2023-01-30T04:08:46.062Z,77.50
2023-01-30T04:11:26.914Z,77.80
2023-01-30T04:13:54.530Z,77.60
2023-01-30T04:16:26.721Z,77.10
2023-01-30T04:19:17.038Z,76.70
2023-01-30T04:21:47.802Z,74.50
2023-01-30T04:24:16.113Z,75.40
2023-01-30T04:26:43.777Z,77.00
2023-01-30T04:29:12.714Z,76.50
2023-01-30T04:31:41.159Z,78.40
2023-01-30T04:34:21.941Z,78.40
2023-01-30T04:36:50.185Z,76.90
2023-01-30T04:39:19.417Z,77.90
2023-01-30T04:41:48.271Z,77.90
2023-01-30T04:44:16.785Z,76.50
2023-01-30T04:47:00.844Z,77.60
2023-01-30T04:49:29.666Z,75.00
2023-01-30T04:51:59.711Z,78.20
2023-01-30T04:54:27.236Z,78.80
2023-01-30T04:56:55.424Z,79.40
2023-01-30T04:59:24.167Z,80.20
2023-01-30T05:02:18.774Z,79.70
2023-01-30T05:04:51.642Z,79.50
2023-01-30T05:07:19.394Z,77.30
2023-01-30T05:09:46.640Z,77.10
2023-01-30T05:12:14.986Z,81.60
2023-01-30T05:14:42.747Z,83.70
2023-01-30T05:17:11.938Z,82.00
2023-01-30T05:19:39.333Z,82.20
2023-01-30T05:22:06.871Z,81.20
2023-01-30T05:24:35.136Z,81.70
2023-01-30T05:27:02.762Z,78.40
2023-01-30T05:29:30.954Z,79.00
2023-01-30T05:31:58.705Z,79.70
2023-01-30T05:34:27.037Z,79.60
2023-01-30T05:36:54.308Z,82.10
2023-01-30T05:39:21.795Z,82.20
2023-01-30T05:41:49.192Z,82.20
2023-01-30T05:44:16.888Z,82.90
2023-01-30T05:46:45.542Z,79.70
2023-01-30T05:49:13.283Z,81.10
2023-01-30T05:51:41.859Z,82.10
2023-01-30T05:54:09.239Z,81.80
2023-01-30T05:56:37.673Z,81.80
2023-01-30T05:59:05.038Z,81.10
2023-01-30T06:01:33.323Z,80.40
2023-01-30T06:04:00.797Z,79.20
2023-01-30T06:06:28.717Z,78.20
2023-01-30T06:08:57.078Z,78.10
2023-01-30T06:11:25.100Z,78.20
2023-01-30T06:13:52.568Z,76.60
2023-01-30T06:16:21.142Z,78.50
2023-01-30T06:18:48.796Z,79.50
2023-01-30T06:21:17.269Z,80.20
2023-01-30T06:23:44.906Z,79.70
2023-01-30T06:26:13.332Z,79.00
2023-01-30T06:28:43.434Z,79.00
2023-01-30T06:31:11.937Z,77.80
2023-01-30T06:33:39.563Z,77.90
2023-01-30T06:36:07.233Z,77.80
2023-01-30T06:38:35.116Z,77.60
2023-01-30T06:41:02.698Z,76.60
2023-01-30T06:43:31.242Z,76.40
2023-01-30T06:46:04.520Z,75.10
2023-01-30T06:48:33.057Z,75.30
2023-01-30T06:51:00.410Z,77.10
2023-01-30T06:53:30.719Z,78.70
2023-01-30T06:55:59.826Z,79.30
2023-01-30T06:58:28.013Z,79.00
2023-01-30T07:00:57.437Z,79.10
2023-01-30T07:03:25.008Z,79.10
2023-01-30T07:05:52.779Z,77.60
2023-01-30T07:08:21.742Z,76.70
2023-01-30T07:10:51.783Z,75.80
2023-01-30T07:13:19.482Z,75.00
2023-01-30T07:15:47.406Z,74.90
2023-01-30T07:18:15.510Z,75.50
2023-01-30T07:20:46.671Z,76.60
2023-01-30T07:23:15.451Z,78.20
2023-01-30T07:25:42.876Z,78.80
2023-01-30T07:28:11.032Z,78.10
2023-01-30T07:30:42.228Z,77.50
2023-01-30T07:33:10.527Z,76.50
2023-01-30T07:35:38.917Z,76.00
2023-01-30T07:38:06.796Z,76.10
2023-01-30T07:40:34.611Z,74.90
2023-01-30T07:43:07.590Z,73.90
2023-01-30T07:45:46.941Z,74.20
2023-01-30T07:48:17.968Z,74.60
2023-01-30T07:50:46.315Z,74.90
2023-01-30T07:53:16.626Z,75.60
2023-01-30T07:55:44.553Z,74.60
2023-01-30T07:58:15.314Z,73.60
2023-01-30T08:00:49.581Z,73.80
2023-01-30T08:03:17.819Z,73.90
2023-01-30T08:05:47.248Z,74.30
2023-01-30T08:08:15.083Z,74.60
2023-01-30T08:10:43.598Z,73.40
2023-01-30T08:13:11.915Z,73.40
2023-01-30T08:15:41.848Z,73.70
2023-01-30T08:18:10.653Z,74.20
2023-01-30T08:20:38.121Z,74.40
2023-01-30T08:23:06.297Z,74.60
2023-01-30T08:25:35.559Z,74.40
2023-01-30T08:28:11.502Z,74.00
2023-01-30T08:30:46.427Z,74.20
2023-01-30T08:33:15.055Z,74.40
2023-01-30T08:35:42.563Z,74.70
2023-01-30T08:38:09.879Z,73.90
2023-01-30T08:40:39.140Z,73.90
2023-01-30T08:43:07.070Z,73.20
2023-01-30T08:45:38.656Z,73.00
2023-01-30T08:48:08.168Z,71.80
2023-01-30T08:50:37.182Z,72.00
2023-01-30T08:53:09.473Z,72.90
2023-01-30T08:55:36.926Z,71.50
2023-01-30T08:58:04.362Z,71.30
2023-01-30T09:00:35.285Z,71.20
2023-01-30T09:03:03.151Z,70.20
2023-01-30T09:05:30.826Z,67.90
2023-01-30T09:07:58.127Z,68.00
2023-01-30T09:10:25.439Z,68.50
2023-01-30T09:12:54.315Z,68.40
2023-01-30T09:15:21.726Z,66.30
2023-01-30T09:17:49.374Z,65.20
2023-01-30T09:20:17.603Z,65.10
2023-01-30T09:22:45.231Z,64.70
2023-01-30T09:25:13.029Z,64.70
2023-01-30T09:27:41.800Z,65.10
2023-01-30T09:30:12.559Z,64.50
2023-01-30T09:32:40.112Z,63.90
2023-01-30T09:35:09.401Z,63.00
2023-01-30T09:37:38.331Z,62.10
2023-01-30T09:40:08.609Z,61.60
2023-01-30T09:42:38.155Z,62.10
2023-01-30T09:45:32.385Z,60.80
2023-01-30T09:48:18.306Z,60.10
2023-01-30T09:51:04.140Z,59.70
2023-01-30T09:54:00.992Z,58.70
2023-01-30T09:56:28.702Z,57.40
2023-01-30T09:58:59.453Z,57.20
2023-01-30T10:01:52.089Z,56.80
2023-01-30T10:04:39.057Z,55.30
2023-01-30T10:07:19.562Z,54.70
2023-01-30T10:09:56.108Z,52.40
2023-01-30T10:12:41.903Z,49.50
2023-01-30T10:15:35.267Z,47.50
2023-01-30T10:18:15.043Z,42.50
2023-01-30T10:21:15.743Z,38.70
2023-01-30T10:24:01.783Z,36.20
2023-01-30T10:26:31.872Z,35.40
2023-01-30T10:29:23.321Z,34.20
2023-01-30T10:32:00.235Z,33.10
2023-01-30T10:34:34.870Z,31.60
2023-01-30T10:37:22.260Z,31.70
2023-01-30T10:39:56.929Z,31.50
2023-01-30T10:42:38.875Z,31.60
2023-01-30T10:45:17.476Z,31.30
2023-01-30T10:48:10.651Z,30.80
2023-01-30T10:50:56.501Z,30.60
2023-01-30T10:53:35.333Z,31.90
2023-01-30T10:56:11.590Z,31.30
2023-01-30T10:58:54.669Z,30.00
2023-01-30T11:01:38.654Z,31.50
2023-01-30T11:04:24.586Z,33.30
2023-01-30T11:06:53.954Z,34.50
2023-01-30T11:09:22.710Z,35.00
2023-01-30T11:11:53.085Z,35.10
2023-01-30T11:14:20.581Z,36.00
2023-01-30T11:16:51.195Z,39.20
2023-01-30T11:19:22.812Z,38.80
2023-01-30T11:21:53.468Z,39.70
2023-01-30T11:24:23.602Z,39.60
2023-01-30T11:26:53.951Z,40.60
2023-01-30T11:29:35.559Z,41.30
2023-01-30T11:32:30.051Z,43.00
2023-01-30T11:35:09.939Z,42.40
2023-01-30T11:37:39.727Z,43.20
2023-01-30T11:40:21.328Z,42.70
2023-01-30T11:42:51.615Z,43.20
2023-01-30T11:45:21.266Z,44.40
2023-01-30T11:47:59.274Z,44.70
2023-01-30T11:50:43.519Z,43.50
2023-01-30T11:53:25.344Z,43.70
2023-01-30T11:56:05.158Z,43.50
2023-01-30T11:58:36.917Z,42.90
2023-01-30T12:01:05.526Z,45.80
2023-01-30T12:03:34.634Z,47.20
2023-01-30T12:06:03.310Z,46.60
2023-01-30T12:08:42.752Z,44.30
2023-01-30T12:11:45.468Z,45.30
2023-01-30T12:14:26.327Z,47.60
2023-01-30T12:17:21.728Z,44.80
2023-01-30T12:20:06.789Z,47.50
2023-01-30T12:23:12.954Z,46.60
2023-01-30T12:26:11.856Z,46.20
2023-01-30T12:28:57.156Z,47.50
2023-01-30T12:31:26.548Z,45.70
2023-01-30T12:33:55.609Z,45.90
2023-01-30T12:36:28.422Z,45.80
2023-01-30T12:39:30.617Z,46.60
2023-01-30T12:42:31.572Z,46.60
2023-01-30T12:44:59.405Z,44.30
2023-01-30T12:47:33.312Z,45.20
2023-01-30T12:50:14.194Z,43.60
2023-01-30T12:52:57.025Z,45.30
2023-01-30T12:55:42.357Z,44.40
2023-01-30T12:58:20.514Z,43.30
2023-01-30T13:01:16.250Z,44.10
2023-01-30T13:03:59.680Z,42.60
2023-01-30T13:06:52.813Z,45.00
2023-01-30T13:09:44.808Z,44.80
2023-01-30T13:12:28.081Z,43.90
2023-01-30T13:15:18.894Z,45.00
2023-01-30T13:18:15.937Z,42.80
2023-01-30T13:21:10.854Z,44.00
2023-01-30T13:24:09.196Z,42.60
2023-01-30T13:26:38.171Z,44.30
2023-01-30T13:29:14.990Z,44.50
2023-01-30T13:31:52.395Z,44.90
2023-01-30T13:34:35.154Z,44.60
2023-01-30T13:37:13.573Z,42.70
2023-01-30T13:39:44.585Z,43.50
2023-01-30T13:42:33.219Z,41.90
2023-01-30T13:45:01.666Z,42.10
2023-01-30T13:47:50.418Z,41.80
2023-01-30T13:50:30.904Z,41.90
2023-01-30T13:53:03.863Z,42.30
2023-01-30T13:55:46.843Z,43.40
2023-01-30T13:58:48.856Z,43.10
2023-01-30T14:01:16.497Z,41.40
2023-01-30T14:03:44.910Z,43.60
2023-01-30T14:06:37.322Z,44.80
2023-01-30T14:09:26.644Z,43.90
2023-01-30T14:12:00.891Z,42.20
2023-01-30T14:14:41.498Z,40.50
2023-01-30T14:17:15.317Z,40.00
2023-01-30T14:19:59.246Z,40.00
2023-01-30T14:22:47.998Z,40.90
2023-01-30T14:25:30.693Z,40.30
2023-01-30T14:28:19.793Z,39.50
2023-01-30T14:31:00.185Z,40.90
2023-01-30T14:33:27.627Z,41.20
2023-01-30T14:36:01.760Z,40.30
2023-01-30T14:38:34.168Z,39.90
2023-01-30T14:41:05.804Z,37.60
2023-01-30T14:43:53.084Z,37.40
2023-01-30T14:46:20.832Z,37.30
2023-01-30T14:48:52.098Z,37.40
2023-01-30T14:51:38.154Z,38.50
2023-01-30T14:54:18.690Z,38.30
2023-01-30T14:57:01.095Z,38.40
2023-01-30T14:59:41.563Z,38.10
2023-01-30T15:02:15.053Z,36.70
2023-01-30T15:04:47.931Z,37.10
2023-01-30T15:07:19.401Z,43.00
2023-01-30T15:10:05.198Z,46.50
2023-01-30T15:12:38.514Z,48.30
2023-01-30T15:15:35.705Z,48.50
2023-01-30T15:18:13.246Z,50.10
2023-01-30T15:21:06.109Z,52.60
2023-01-30T15:24:04.692Z,53.30
2023-01-30T15:26:43.968Z,49.70
2023-01-30T15:29:30.023Z,50.70
2023-01-30T15:32:02.777Z,50.30
2023-01-30T15:34:34.404Z,52.60
2023-01-30T15:37:01.768Z,51.40
2023-01-30T15:39:29.398Z,53.00
2023-01-30T15:42:07.273Z,53.30
2023-01-30T15:45:03.823Z,52.90
2023-01-30T15:47:58.959Z,53.70
2023-01-30T15:50:26.439Z,54.30
2023-01-30T15:52:56.627Z,53.60
2023-01-30T15:55:37.996Z,55.90
2023-01-30T15:58:13.490Z,54.00
2023-01-30T16:00:53.850Z,52.80
2023-01-30T16:03:31.573Z,54.20
2023-01-30T16:05:59.740Z,54.20
2023-01-30T16:08:33.113Z,55.50
2023-01-30T16:11:01.642Z,56.40
2023-01-30T16:13:30.071Z,55.30
2023-01-30T16:16:18.979Z,57.10
2023-01-30T16:18:52.862Z,57.70
2023-01-30T16:21:27.376Z,59.50
2023-01-30T16:24:06.970Z,58.50
2023-01-30T16:26:37.018Z,56.90
2023-01-30T16:29:14.481Z,55.60
2023-01-30T16:31:47.867Z,56.40
2023-01-30T16:34:30.440Z,57.00
2023-01-30T16:37:08.636Z,57.50
2023-01-30T16:39:39.763Z,58.10
2023-01-30T16:42:28.769Z,58.40
2023-01-30T16:45:12.329Z,57.50
2023-01-30T16:47:41.034Z,58.60
2023-01-30T16:50:28.564Z,57.60
2023-01-30T16:52:57.245Z,56.80
2023-01-30T16:55:28.455Z,57.50
2023-01-30T16:58:00.626Z,57.40
2023-01-30T17:00:42.754Z,57.80
2023-01-30T17:04:00.709Z,57.60
2023-01-30T17:06:53.422Z,58.00
2023-01-30T17:09:42.821Z,58.50
2023-01-30T17:12:31.311Z,58.40
2023-01-30T17:15:14.764Z,58.20
2023-01-30T17:17:42.645Z,57.20
2023-01-30T17:20:11.739Z,57.20
2023-01-30T17:22:42.043Z,57.40
2023-01-30T17:25:30.540Z,57.40
2023-01-30T17:27:59.490Z,57.20
2023-01-30T17:30:32.333Z,57.30
2023-01-30T17:33:01.041Z,58.40
2023-01-30T17:35:28.389Z,59.40
2023-01-30T17:38:04.856Z,60.80
2023-01-30T17:41:02.614Z,62.40
2023-01-30T17:43:30.356Z,63.50
2023-01-30T17:45:58.603Z,63.90
2023-01-30T17:48:26.592Z,64.20
2023-01-30T17:50:54.016Z,63.00
2023-01-30T17:53:21.425Z,62.20
2023-01-30T17:55:48.849Z,63.90
2023-01-30T17:58:21.491Z,65.50
2023-01-30T18:00:51.544Z,64.40
2023-01-30T18:03:20.825Z,65.50
2023-01-30T18:05:49.168Z,65.00
2023-01-30T18:08:16.825Z,64.80
2023-01-30T18:10:44.282Z,65.80
2023-01-30T18:13:15.245Z,65.40
2023-01-30T18:15:48.859Z,64.30
2023-01-30T18:18:19.328Z,65.50
2023-01-30T18:20:48.407Z,66.40
2023-01-30T18:23:18.520Z,66.50
2023-01-30T18:25:46.876Z,67.70
2023-01-30T18:28:14.593Z,67.70
2023-01-30T18:30:45.261Z,68.00
2023-01-30T18:33:13.845Z,68.80
2023-01-30T18:35:41.235Z,67.60
2023-01-30T18:38:09.397Z,67.30
2023-01-30T18:40:40.156Z,66.50
2023-01-30T18:43:07.489Z,66.60
2023-01-30T18:45:39.185Z,66.30
2023-01-30T18:48:06.759Z,65.60
2023-01-30T18:50:34.085Z,68.20
2023-01-30T18:53:02.102Z,67.80
2023-01-30T18:55:29.496Z,67.90
2023-01-30T18:58:00.468Z,67.60
2023-01-30T19:00:28.114Z,67.70
2023-01-30T19:02:56.573Z,68.40
2023-01-30T19:05:24.320Z,68.10
2023-01-30T19:07:51.675Z,69.10
2023-01-30T19:10:20.773Z,69.00
2023-01-30T19:13:06.826Z,69.40
2023-01-30T19:15:38.230Z,68.80
2023-01-30T19:18:06.768Z,68.90
2023-01-30T19:20:35.588Z,68.90
2023-01-30T19:23:03.032Z,68.40
2023-01-30T19:25:30.432Z,68.70
2023-01-30T19:27:58.182Z,68.40
2023-01-30T19:30:25.802Z,68.40
2023-01-30T19:32:54.447Z,67.80
2023-01-30T19:35:23.649Z,67.50
2023-01-30T19:37:55.491Z,66.40
2023-01-30T19:40:23.123Z,67.90
2023-01-30T19:42:54.637Z,68.10
2023-01-30T19:45:28.388Z,67.70
2023-01-30T19:47:56.832Z,69.00
2023-01-30T19:50:24.520Z,68.20
2023-01-30T19:52:54.718Z,69.20
2023-01-30T19:55:23.386Z,68.90
2023-01-30T19:57:51.399Z,68.70
2023-01-30T20:00:20.921Z,68.40
2023-01-30T20:02:50.151Z,68.50
2023-01-30T20:05:20.093Z,69.10
2023-01-30T20:07:47.435Z,69.90
2023-01-30T20:10:15.000Z,69.30
2023-01-30T20:12:44.085Z,68.40
2023-01-30T20:15:11.997Z,69.50
2023-01-30T20:17:41.192Z,70.40
2023-01-30T20:20:10.787Z,69.50
2023-01-30T20:22:39.732Z,70.90
2023-01-30T20:25:09.158Z,70.10
2023-01-30T20:27:36.866Z,71.90
2023-01-30T20:30:05.847Z,71.50
2023-01-30T20:32:35.894Z,70.80
2023-01-30T20:35:05.477Z,69.10
2023-01-30T20:37:35.701Z,68.20
2023-01-30T20:40:03.837Z,68.80
2023-01-30T20:42:32.080Z,69.90
2023-01-30T20:45:00.205Z,68.90
2023-01-30T20:47:28.612Z,68.10
2023-01-30T20:49:56.005Z,69.40
2023-01-30T20:52:23.979Z,69.40
2023-01-30T20:54:52.261Z,67.20
2023-01-30T20:57:19.711Z,68.70
2023-01-30T20:59:47.403Z,68.90
2023-01-30T21:02:17.822Z,69.70
2023-01-30T21:04:45.876Z,69.30
2023-01-30T21:07:13.352Z,68.80
2023-01-30T21:09:47.826Z,68.80
2023-01-30T21:12:15.399Z,71.40
2023-01-30T21:14:42.914Z,71.80
2023-01-30T21:17:10.303Z,70.70
2023-01-30T21:19:38.417Z,69.80
2023-01-30T21:22:12.096Z,71.10
2023-01-30T21:24:39.771Z,69.60
2023-01-30T21:27:08.305Z,69.40
2023-01-30T21:29:36.841Z,70.30
2023-01-30T21:32:06.413Z,68.50
2023-01-30T21:34:35.869Z,68.70
2023-01-30T21:37:21.681Z,69.40
2023-01-30T21:40:08.183Z,69.60
2023-01-30T21:42:54.611Z,69.60
2023-01-30T21:45:23.337Z,67.50
2023-01-30T21:47:52.283Z,69.70
2023-01-30T21:50:21.465Z,70.00
2023-01-30T21:52:48.880Z,69.50
2023-01-30T21:55:17.702Z,70.50
2023-01-30T21:57:45.362Z,70.70
2023-01-30T22:00:13.461Z,72.10
2023-01-30T22:02:41.478Z,70.80
2023-01-30T22:05:10.159Z,71.20
2023-01-30T22:07:37.926Z,71.10
2023-01-30T22:10:05.827Z,71.80
2023-01-30T22:12:33.304Z,72.10
2023-01-30T22:15:01.994Z,70.90
2023-01-30T22:17:29.424Z,71.20
2023-01-30T22:19:58.157Z,70.10
2023-01-30T22:22:26.016Z,70.00
2023-01-30T22:24:53.954Z,69.00
2023-01-30T22:27:21.565Z,69.90
2023-01-30T22:29:49.722Z,70.90
2023-01-30T22:32:17.135Z,70.90
2023-01-30T22:34:45.328Z,71.40
2023-01-30T22:37:13.030Z,71.70
2023-01-30T22:39:41.721Z,71.60
2023-01-30T22:42:09.543Z,71.20
2023-01-30T22:44:38.194Z,69.80
2023-01-30T22:47:06.199Z,71.90
2023-01-30T22:49:33.505Z,74.20
2023-01-30T22:52:01.876Z,74.80
2023-01-30T22:54:29.391Z,74.20
2023-01-30T22:56:57.064Z,73.80
2023-01-30T22:59:24.672Z,72.50
2023-01-30T23:01:52.103Z,72.60
2023-01-30T23:04:24.303Z,72.40
2023-01-30T23:06:52.709Z,72.50
2023-01-30T23:09:23.410Z,72.20
2023-01-30T23:12:10.424Z,70.90
2023-01-30T23:14:39.312Z,73.70
2023-01-30T23:17:26.668Z,74.20
2023-01-30T23:19:55.404Z,75.00
2023-01-30T23:22:23.247Z,75.20
2023-01-30T23:24:51.517Z,75.50
2023-01-30T23:27:20.250Z,75.40
2023-01-30T23:29:47.662Z,75.50
2023-01-30T23:32:15.399Z,74.90
2023-01-30T23:34:42.854Z,74.20
2023-01-30T23:37:10.255Z,73.00
2023-01-30T23:39:38.929Z,75.00
2023-01-30T23:42:06.461Z,74.70
2023-01-30T23:44:34.004Z,73.50
2023-01-30T23:47:01.816Z,73.20
2023-01-30T23:49:29.714Z,75.30
2023-01-30T23:51:57.504Z,75.80
2023-01-30T23:54:25.628Z,76.10
2023-01-30T23:56:55.451Z,76.60
2023-01-30T23:59:22.782Z,74.20
